Airfield :







YOU CAN JOIN US ON...

 
LOGIN :

Register | Disclaimer

   EN    FR    IT 

 









Legend :    VFR   Marginal VFR   IFR   Intensive IFR   Very Intensive IFR
Visi :
Ceiling :
>= 8 km
>= 3000ft
5 to 8 km
1000 to 3000 ft
1500m to 5 km
500 to 1000 ft
800 to 1500m
200 to 500 ft
< 800m
< 200 ft
Symbols :   Thunderstorms  Fog  Heavy snow  Heavy precipitations  Wind > 20 kt







- Airport Elevation : 489 ft


KHUL - Houlton International

CURRENT METAR :
  • 241253Z AUTO 36007KT 10SM CLR 04/M01 A3063 RMK AO2 SLP380 T00391006

EXPIRED METARs :
  • 241153Z AUTO 00000KT 10SM CLR 00/M01 A3061 RMK AO2 SLP372 I6002 T00001011 10000 21050 51030
  • 241053Z AUTO 00000KT 10SM CLR M04/M05 A3058 RMK AO2 SLP363 T10441050

TAF KHUL
Valid from the 24 at 12:00 until the 25 at 12:00 UTC


241120Z 2412/2512 35005KT P6SM SKC
KZBW FIR / North America



MET'MAP, your aeronautical weather chart ! - Copyright ORBIFLY December 2007 - Disclaimer

ORBIFLY MET'MAP TEAM :

Programming & Development : Alexandra Zaïnal
Concept & Development : Baudouin d'Aumeries
Co-Development & Prog : Marc-Olivier Méhu
Technical & hardware support : Manuel Goepfert

Contact : metmap@orbifly.com




SOURCES & CREDITS :

   NOAA